createdAt,value
2018-03-25T00:01:46.594Z,64.70
2018-03-25T00:04:14.190Z,64.70
2018-03-25T00:06:41.789Z,64.90
2018-03-25T00:09:11.162Z,64.60
2018-03-25T00:11:38.757Z,64.60
2018-03-25T00:14:06.614Z,64.60
2018-03-25T00:16:34.200Z,64.30
2018-03-25T00:19:01.774Z,64.60
2018-03-25T00:21:30.256Z,65.10
2018-03-25T00:23:57.820Z,65.20
2018-03-25T00:26:26.242Z,65.10
2018-03-25T00:28:56.102Z,65.10
2018-03-25T00:31:23.657Z,65.10
2018-03-25T00:33:52.249Z,65.20
2018-03-25T00:36:20.723Z,65.60
2018-03-25T00:38:49.098Z,65.50
2018-03-25T00:41:16.688Z,65.80
2018-03-25T00:43:44.271Z,66.00
2018-03-25T00:46:11.833Z,66.30
2018-03-25T00:48:39.384Z,66.10
2018-03-25T00:51:06.982Z,66.10
2018-03-25T00:53:35.308Z,66.50
2018-03-25T00:56:02.870Z,66.50
2018-03-25T00:58:31.225Z,67.10
2018-03-25T01:00:58.757Z,67.10
2018-03-25T01:03:27.559Z,66.90
2018-03-25T01:05:55.477Z,67.00
2018-03-25T01:08:23.071Z,67.40
2018-03-25T01:10:50.623Z,67.20
2018-03-25T01:13:18.948Z,67.70
2018-03-25T01:15:59.014Z,67.60
2018-03-25T01:18:26.578Z,67.70
2018-03-25T01:20:54.142Z,67.90
2018-03-25T01:23:21.680Z,67.90
2018-03-25T01:25:49.588Z,68.10
2018-03-25T01:28:17.828Z,67.90
2018-03-25T01:30:46.165Z,67.80
2018-03-25T01:33:13.856Z,67.80
2018-03-25T01:35:41.397Z,68.00
2018-03-25T01:38:09.697Z,68.00
2018-03-25T01:40:37.283Z,68.10
2018-03-25T01:43:05.605Z,67.60
2018-03-25T01:45:33.944Z,67.70
2018-03-25T01:48:01.850Z,67.60
2018-03-25T01:50:29.417Z,68.90
2018-03-25T01:52:57.021Z,67.80
2018-03-25T01:55:25.707Z,68.00
2018-03-25T01:57:53.253Z,68.00
2018-03-25T02:00:21.602Z,68.00
2018-03-25T02:05:43.312Z,68.20
2018-03-25T02:08:10.979Z,68.20
2018-03-25T02:10:38.576Z,68.40
2018-03-25T02:13:07.140Z,68.70
2018-03-25T02:15:34.743Z,68.40
2018-03-25T02:18:02.333Z,68.40
2018-03-25T02:20:29.898Z,68.40
2018-03-25T02:22:58.518Z,68.40
2018-03-25T02:25:26.881Z,68.40
2018-03-25T02:27:54.463Z,68.50
2018-03-25T02:30:23.382Z,68.50
2018-03-25T02:32:51.761Z,68.70
2018-03-25T02:35:20.538Z,68.70
2018-03-25T02:37:48.495Z,69.00
2018-03-25T02:40:16.048Z,68.80
2018-03-25T02:42:43.595Z,68.80
2018-03-25T02:45:11.203Z,68.80
2018-03-25T02:47:39.030Z,68.60
2018-03-25T02:50:07.351Z,69.10
2018-03-25T02:52:34.971Z,69.20
2018-03-25T02:55:02.521Z,69.40
2018-03-25T02:57:30.112Z,69.80
2018-03-25T02:59:57.731Z,69.10
2018-03-25T03:02:25.312Z,69.30
2018-03-25T03:04:53.984Z,68.90
2018-03-25T03:07:21.580Z,69.00
2018-03-25T03:09:49.587Z,69.00
2018-03-25T03:12:17.833Z,69.60
2018-03-25T03:14:45.414Z,69.10
2018-03-25T03:17:12.997Z,69.20
2018-03-25T03:19:41.745Z,69.80
2018-03-25T03:22:09.307Z,69.70
2018-03-25T03:24:37.647Z,69.90
2018-03-25T03:27:05.300Z,69.90
2018-03-25T03:29:32.884Z,70.10
2018-03-25T03:32:00.431Z,70.00
2018-03-25T03:34:28.138Z,69.60
2018-03-25T03:36:55.696Z,69.70
2018-03-25T03:39:24.019Z,68.90
2018-03-25T03:41:51.731Z,68.90
2018-03-25T03:44:19.746Z,69.10
2018-03-25T03:46:48.406Z,69.60
2018-03-25T03:49:18.336Z,70.00
2018-03-25T03:51:45.876Z,70.00
2018-03-25T03:54:13.423Z,69.80
2018-03-25T03:56:41.015Z,69.80
2018-03-25T03:59:08.575Z,69.70
2018-03-25T04:01:36.227Z,69.90
2018-03-25T04:04:03.958Z,69.60
2018-03-25T04:06:31.551Z,69.70
2018-03-25T04:08:59.092Z,69.60
2018-03-25T04:11:26.674Z,69.60
2018-03-25T04:13:54.224Z,69.40
2018-03-25T04:16:21.808Z,69.50
2018-03-25T04:18:49.775Z,69.60
2018-03-25T04:21:18.133Z,69.70
2018-03-25T04:23:45.768Z,69.70
2018-03-25T04:26:14.324Z,70.00
2018-03-25T04:28:41.972Z,70.00
2018-03-25T04:31:09.524Z,69.90
2018-03-25T04:33:37.111Z,69.60
2018-03-25T04:36:04.685Z,69.70
2018-03-25T04:38:32.267Z,69.80
2018-03-25T04:40:59.823Z,69.70
2018-03-25T04:43:27.384Z,69.70
2018-03-25T04:45:54.979Z,70.00
2018-03-25T04:48:22.585Z,70.60
2018-03-25T04:50:50.976Z,70.10
2018-03-25T04:53:19.479Z,70.10
2018-03-25T04:55:47.470Z,70.30
2018-03-25T04:58:15.017Z,70.20
2018-03-25T05:00:42.582Z,70.40
2018-03-25T05:03:10.175Z,70.50
2018-03-25T05:05:38.506Z,70.10
2018-03-25T05:08:06.086Z,70.10
2018-03-25T05:10:35.460Z,70.40
2018-03-25T05:13:03.188Z,70.40
2018-03-25T05:15:30.782Z,70.60
2018-03-25T05:17:58.335Z,70.20
2018-03-25T05:20:25.957Z,70.40
2018-03-25T05:22:53.544Z,70.10
2018-03-25T05:25:21.143Z,70.00
2018-03-25T05:27:49.459Z,70.10
2018-03-25T05:30:18.109Z,70.00
2018-03-25T05:32:45.674Z,69.80
2018-03-25T05:35:13.256Z,70.00
2018-03-25T05:37:40.834Z,69.80
2018-03-25T05:40:08.411Z,69.60
2018-03-25T05:42:36.887Z,69.50
2018-03-25T05:45:04.437Z,69.50
2018-03-25T05:47:32.015Z,69.50
2018-03-25T05:49:59.572Z,69.20
2018-03-25T05:52:27.161Z,69.00
2018-03-25T05:54:54.724Z,68.80
2018-03-25T05:57:23.067Z,68.20
2018-03-25T05:59:50.730Z,68.20
2018-03-25T06:02:19.340Z,66.40
2018-03-25T06:04:48.885Z,63.40
2018-03-25T06:07:19.088Z,62.20
2018-03-25T06:09:46.685Z,62.20
2018-03-25T06:12:15.171Z,60.30
2018-03-25T06:14:43.543Z,57.30
2018-03-25T06:17:12.026Z,57.30
2018-03-25T06:19:39.679Z,55.50
2018-03-25T06:22:07.271Z,54.50
2018-03-25T06:24:36.856Z,52.40
2018-03-25T06:27:04.419Z,52.40
2018-03-25T06:29:32.015Z,51.60
2018-03-25T06:31:59.674Z,51.00
2018-03-25T06:34:27.279Z,50.60
2018-03-25T06:36:54.844Z,49.90
2018-03-25T06:39:22.427Z,48.80
2018-03-25T06:41:50.778Z,46.60
2018-03-25T06:44:19.727Z,45.50
2018-03-25T06:46:47.889Z,45.60
2018-03-25T06:49:15.478Z,44.50
2018-03-25T06:51:43.785Z,44.20
2018-03-25T06:54:11.426Z,43.40
2018-03-25T06:56:38.959Z,43.00
2018-03-25T06:59:07.061Z,43.10
2018-03-25T07:01:34.654Z,42.30
2018-03-25T07:04:05.088Z,41.70
2018-03-25T07:06:33.501Z,41.50
2018-03-25T07:09:01.660Z,41.50
2018-03-25T07:11:29.300Z,41.00
2018-03-25T07:13:57.629Z,40.10
2018-03-25T07:16:25.262Z,40.10
2018-03-25T07:18:53.578Z,39.40
2018-03-25T07:21:21.118Z,39.30
2018-03-25T07:23:49.625Z,39.40
2018-03-25T07:26:17.910Z,38.40
2018-03-25T07:28:48.144Z,38.50
2018-03-25T07:31:16.517Z,36.40
2018-03-25T07:33:44.119Z,36.40
2018-03-25T07:36:12.497Z,34.50
2018-03-25T07:38:40.866Z,33.70
2018-03-25T07:41:08.409Z,33.60
2018-03-25T07:43:37.244Z,33.70
2018-03-25T07:46:04.795Z,33.70
2018-03-25T07:48:33.116Z,33.40
2018-03-25T07:51:01.628Z,33.40
2018-03-25T07:53:29.245Z,32.90
2018-03-25T07:55:56.885Z,32.80
2018-03-25T07:58:25.363Z,32.00
2018-03-25T08:00:52.955Z,31.70
2018-03-25T08:03:20.510Z,30.80
2018-03-25T08:05:48.572Z,30.70
2018-03-25T08:08:16.460Z,30.10
2018-03-25T08:10:44.107Z,29.90
2018-03-25T08:13:11.732Z,29.70
2018-03-25T08:15:39.330Z,29.80
2018-03-25T08:18:07.650Z,28.60
2018-03-25T08:20:35.958Z,27.90
2018-03-25T08:23:03.547Z,27.90
2018-03-25T08:25:32.830Z,27.80
2018-03-25T08:28:00.501Z,27.80
2018-03-25T08:30:28.820Z,27.50
2018-03-25T08:32:57.195Z,28.10
2018-03-25T08:35:24.810Z,28.10
2018-03-25T08:37:53.127Z,27.70
2018-03-25T08:40:20.811Z,27.50
2018-03-25T08:42:48.437Z,27.20
2018-03-25T08:45:16.780Z,27.10
2018-03-25T08:47:45.132Z,27.00
2018-03-25T08:50:13.111Z,27.00
2018-03-25T08:52:40.712Z,27.10
2018-03-25T08:55:09.030Z,26.80
2018-03-25T08:57:36.595Z,26.80
2018-03-25T09:00:04.644Z,26.90
2018-03-25T09:02:32.216Z,27.20
2018-03-25T09:04:59.742Z,27.00
2018-03-25T09:07:28.085Z,27.00
2018-03-25T09:09:55.626Z,26.90
2018-03-25T09:12:23.248Z,26.90
2018-03-25T09:14:50.795Z,27.60
2018-03-25T09:17:19.137Z,27.60
2018-03-25T09:19:46.687Z,27.50
2018-03-25T09:22:14.227Z,27.80
2018-03-25T09:24:41.808Z,28.30
2018-03-25T09:27:09.344Z,28.50
2018-03-25T09:29:36.930Z,29.30
2018-03-25T09:32:04.475Z,29.50
2018-03-25T09:34:32.873Z,27.90
2018-03-25T09:37:00.423Z,27.90
2018-03-25T09:39:27.984Z,27.60
2018-03-25T09:41:55.519Z,27.90
2018-03-25T09:44:24.212Z,27.30
2018-03-25T09:46:52.538Z,26.40
2018-03-25T09:49:20.851Z,26.10
2018-03-25T09:51:48.429Z,26.10
2018-03-25T09:54:15.983Z,25.70
2018-03-25T09:56:43.552Z,25.40
2018-03-25T09:59:11.083Z,25.00
2018-03-25T10:01:44.292Z,24.00
2018-03-25T10:04:11.826Z,24.30
2018-03-25T10:06:39.394Z,24.40
2018-03-25T10:09:06.964Z,24.50
2018-03-25T10:11:35.285Z,23.60
2018-03-25T10:14:03.645Z,24.00
2018-03-25T10:16:31.963Z,23.40
2018-03-25T10:18:59.587Z,23.40
2018-03-25T10:21:27.100Z,23.70
2018-03-25T10:23:54.673Z,22.50
2018-03-25T10:26:23.838Z,22.20
2018-03-25T10:28:51.427Z,22.10
2018-03-25T10:31:19.018Z,21.50
2018-03-25T10:33:47.412Z,21.30
2018-03-25T10:36:14.979Z,21.20
2018-03-25T10:38:42.540Z,20.90
2018-03-25T10:41:11.108Z,20.10
2018-03-25T10:43:38.803Z,20.30
2018-03-25T10:46:06.534Z,20.70
2018-03-25T10:48:36.169Z,20.50
2018-03-25T10:51:03.769Z,20.20
2018-03-25T10:53:31.385Z,20.30
2018-03-25T10:55:59.898Z,19.60
2018-03-25T10:58:27.491Z,19.20
2018-03-25T11:00:55.822Z,18.90
2018-03-25T11:03:24.166Z,19.10
2018-03-25T11:05:51.799Z,19.00
2018-03-25T11:08:20.130Z,19.00
2018-03-25T11:10:47.676Z,19.00
2018-03-25T11:13:15.227Z,18.60
2018-03-25T11:15:42.835Z,18.50
2018-03-25T11:18:10.400Z,18.40
2018-03-25T11:20:38.741Z,18.70
2018-03-25T11:23:06.298Z,18.60
2018-03-25T11:25:33.864Z,19.20
2018-03-25T11:28:02.382Z,20.50
2018-03-25T11:30:30.754Z,22.60
2018-03-25T11:32:59.075Z,24.00
2018-03-25T11:35:26.665Z,23.90
2018-03-25T11:37:54.300Z,25.40
2018-03-25T11:40:21.879Z,26.40
2018-03-25T11:42:49.971Z,27.10
2018-03-25T11:45:18.446Z,28.40
2018-03-25T11:47:46.385Z,28.30
2018-03-25T11:50:13.959Z,28.70
2018-03-25T11:52:41.544Z,29.70
2018-03-25T11:55:10.064Z,31.30
2018-03-25T11:57:37.614Z,31.20
2018-03-25T12:00:05.379Z,30.10
2018-03-25T12:02:33.054Z,30.40
2018-03-25T12:05:00.636Z,30.70
2018-03-25T12:07:28.202Z,31.60
2018-03-25T12:09:55.770Z,31.30
2018-03-25T12:12:24.396Z,30.80
2018-03-25T12:14:51.961Z,31.40
2018-03-25T12:17:19.556Z,32.50
2018-03-25T12:19:47.134Z,31.90
2018-03-25T12:22:14.747Z,32.50
2018-03-25T12:24:43.295Z,32.00
2018-03-25T12:27:12.625Z,32.20
2018-03-25T12:29:40.328Z,32.20
2018-03-25T12:32:07.879Z,31.40
2018-03-25T12:34:35.464Z,32.30
2018-03-25T12:37:03.791Z,31.90
2018-03-25T12:39:31.402Z,31.80
2018-03-25T12:41:59.715Z,31.70
2018-03-25T12:44:49.443Z,31.70
2018-03-25T12:47:17.323Z,32.40
2018-03-25T12:49:45.660Z,32.40
2018-03-25T12:52:13.261Z,32.30
2018-03-25T12:54:41.639Z,32.80
2018-03-25T12:57:09.215Z,32.70
2018-03-25T12:59:36.780Z,32.60
2018-03-25T13:02:05.330Z,32.60
2018-03-25T13:04:33.624Z,32.40
2018-03-25T13:07:01.211Z,32.40
2018-03-25T13:09:28.778Z,33.40
2018-03-25T13:11:57.262Z,33.20
2018-03-25T13:14:24.837Z,32.40
2018-03-25T13:16:53.924Z,31.70
2018-03-25T13:19:21.523Z,31.70
2018-03-25T13:21:49.864Z,32.20
2018-03-25T13:24:17.454Z,32.20
2018-03-25T13:26:46.761Z,32.40
2018-03-25T13:29:15.084Z,32.70
2018-03-25T13:31:42.686Z,32.70
2018-03-25T13:34:10.251Z,32.50
2018-03-25T13:36:38.564Z,33.30
2018-03-25T13:39:06.153Z,33.30
2018-03-25T13:41:33.724Z,32.90
2018-03-25T13:44:01.302Z,32.80
2018-03-25T13:46:29.614Z,33.00
2018-03-25T13:48:57.171Z,33.00
2018-03-25T13:51:24.737Z,33.20
2018-03-25T13:53:52.859Z,33.30
2018-03-25T13:56:22.129Z,33.30
2018-03-25T13:58:49.681Z,33.30
2018-03-25T14:01:17.333Z,33.30
2018-03-25T14:03:45.687Z,33.80
2018-03-25T14:06:13.297Z,33.80
2018-03-25T14:08:40.865Z,33.50
2018-03-25T14:11:09.279Z,33.40
2018-03-25T14:13:36.850Z,33.40
2018-03-25T14:16:04.431Z,33.80
2018-03-25T14:18:32.033Z,33.90
2018-03-25T14:21:00.349Z,33.80
2018-03-25T14:23:27.928Z,33.80
2018-03-25T14:25:55.510Z,33.80
2018-03-25T14:28:23.839Z,33.40
2018-03-25T14:30:51.545Z,33.40
2018-03-25T14:33:19.122Z,33.50
2018-03-25T14:35:49.426Z,33.70
2018-03-25T14:38:17.880Z,33.50
2018-03-25T14:40:45.451Z,33.50
2018-03-25T14:43:13.010Z,34.20
2018-03-25T14:45:42.154Z,34.60
2018-03-25T14:48:10.711Z,34.60
2018-03-25T14:50:39.120Z,34.50
2018-03-25T14:53:06.675Z,34.40
2018-03-25T14:55:35.292Z,34.60
2018-03-25T14:58:02.879Z,34.00
2018-03-25T15:00:33.566Z,34.20
2018-03-25T15:03:01.166Z,33.90
2018-03-25T15:05:33.802Z,34.10
2018-03-25T15:08:01.403Z,33.60
2018-03-25T15:10:29.846Z,33.50
2018-03-25T15:12:57.401Z,33.60
2018-03-25T15:15:24.980Z,33.50
2018-03-25T15:17:52.650Z,34.10
2018-03-25T15:20:23.204Z,34.30
2018-03-25T15:22:52.526Z,35.00
2018-03-25T15:25:20.081Z,35.00
2018-03-25T15:27:47.639Z,35.40
2018-03-25T15:30:15.187Z,35.50
2018-03-25T15:32:45.509Z,35.80
2018-03-25T15:35:15.862Z,35.80
2018-03-25T15:37:43.414Z,35.80
2018-03-25T15:40:12.058Z,35.70
2018-03-25T15:42:40.395Z,35.20
2018-03-25T15:45:07.983Z,35.20
2018-03-25T15:47:35.870Z,35.90
2018-03-25T15:50:03.739Z,35.50
2018-03-25T15:52:31.291Z,35.60
2018-03-25T15:54:59.669Z,36.70
2018-03-25T15:57:27.988Z,36.80
2018-03-25T15:59:55.767Z,36.80
2018-03-25T16:02:23.381Z,36.60
2018-03-25T16:04:50.941Z,36.60
2018-03-25T16:07:18.524Z,36.40
2018-03-25T16:09:46.105Z,36.50
2018-03-25T16:12:14.665Z,36.30
2018-03-25T16:14:42.351Z,36.20
2018-03-25T16:17:10.124Z,37.10
2018-03-25T16:19:42.017Z,37.60
2018-03-25T16:22:09.653Z,37.10
2018-03-25T16:24:38.001Z,37.40
2018-03-25T16:27:05.642Z,37.30
2018-03-25T16:29:33.295Z,37.30
2018-03-25T16:32:00.968Z,37.30
2018-03-25T16:34:28.530Z,37.50
2018-03-25T16:36:56.100Z,37.40
2018-03-25T16:39:24.678Z,37.20
2018-03-25T16:41:52.268Z,37.70
2018-03-25T16:44:20.757Z,38.00
2018-03-25T16:46:49.189Z,38.20
2018-03-25T16:49:16.817Z,38.20
2018-03-25T16:51:48.269Z,38.40
2018-03-25T16:54:15.871Z,38.40
2018-03-25T16:56:43.427Z,38.70
2018-03-25T16:59:11.011Z,38.90
2018-03-25T17:01:38.590Z,38.80
2018-03-25T17:04:06.223Z,38.90
2018-03-25T17:06:34.730Z,39.00
2018-03-25T17:09:02.678Z,39.10
2018-03-25T17:11:30.364Z,39.20
2018-03-25T17:13:58.720Z,40.00
2018-03-25T17:16:27.376Z,40.70
2018-03-25T17:18:54.929Z,40.20
2018-03-25T17:21:22.723Z,40.60
2018-03-25T17:23:50.360Z,41.40
2018-03-25T17:26:17.989Z,41.90
2018-03-25T17:28:47.110Z,42.40
2018-03-25T17:31:15.655Z,42.80
2018-03-25T17:33:44.157Z,43.60
2018-03-25T17:36:11.780Z,43.60
2018-03-25T17:38:39.367Z,43.80
2018-03-25T17:41:07.940Z,44.10
2018-03-25T17:43:35.531Z,44.40
2018-03-25T17:46:04.056Z,44.60
2018-03-25T17:48:31.996Z,44.80
2018-03-25T17:51:00.504Z,44.90
2018-03-25T17:53:28.191Z,45.10
2018-03-25T17:55:56.747Z,45.30
2018-03-25T17:58:26.074Z,45.60
2018-03-25T18:01:12.303Z,45.50
2018-03-25T18:03:41.244Z,45.90
2018-03-25T18:06:09.834Z,45.80
2018-03-25T18:08:38.385Z,45.80
2018-03-25T18:11:06.905Z,45.60
2018-03-25T18:13:34.581Z,46.00
2018-03-25T18:16:02.173Z,45.90
2018-03-25T18:18:29.747Z,46.00
2018-03-25T18:20:57.351Z,46.10
2018-03-25T18:23:24.939Z,46.00
2018-03-25T18:25:52.904Z,46.20
2018-03-25T18:28:21.435Z,46.20
2018-03-25T18:30:50.722Z,46.40
2018-03-25T18:33:19.167Z,46.30
2018-03-25T18:35:48.265Z,46.00
2018-03-25T18:38:15.879Z,46.50
2018-03-25T18:40:47.291Z,46.40
2018-03-25T18:43:15.695Z,46.80
2018-03-25T18:45:43.304Z,46.80
2018-03-25T18:48:11.842Z,47.00
2018-03-25T18:50:40.926Z,46.80
2018-03-25T18:53:10.251Z,47.20
2018-03-25T18:55:37.979Z,47.20
2018-03-25T18:58:06.014Z,47.20
2018-03-25T19:00:39.141Z,47.20
2018-03-25T19:03:08.200Z,47.10
2018-03-25T19:05:35.832Z,47.30
2018-03-25T19:08:03.425Z,47.40
2018-03-25T19:10:33.135Z,47.10
2018-03-25T19:13:00.706Z,47.00
2018-03-25T19:15:30.049Z,47.20
2018-03-25T19:17:57.598Z,47.20
2018-03-25T19:20:25.382Z,47.10
2018-03-25T19:22:53.911Z,48.20
2018-03-25T19:25:23.444Z,48.40
2018-03-25T19:27:51.076Z,48.40
2018-03-25T19:30:19.453Z,48.50
2018-03-25T19:32:47.986Z,48.80
2018-03-25T19:35:15.543Z,48.70
2018-03-25T19:37:43.137Z,48.80
2018-03-25T19:40:10.697Z,48.80
2018-03-25T19:42:39.220Z,49.00
2018-03-25T19:45:06.807Z,49.20
2018-03-25T19:47:34.380Z,49.20
2018-03-25T19:50:02.699Z,49.30
2018-03-25T19:52:32.016Z,49.10
2018-03-25T19:54:59.624Z,49.00
2018-03-25T19:57:27.207Z,49.60
2018-03-25T19:59:55.646Z,49.60
2018-03-25T20:02:23.256Z,49.50
2018-03-25T20:04:50.876Z,49.40
2018-03-25T20:07:18.478Z,49.40
2018-03-25T20:09:46.049Z,49.30
2018-03-25T20:12:13.669Z,49.50
2018-03-25T20:14:41.240Z,48.70
2018-03-25T20:17:09.566Z,49.90
2018-03-25T20:19:38.175Z,49.90
2018-03-25T20:22:06.691Z,50.30
2018-03-25T20:24:35.042Z,50.80
2018-03-25T20:27:02.591Z,50.80
2018-03-25T20:29:30.199Z,50.80
2018-03-25T20:31:57.822Z,50.90
2018-03-25T20:34:25.449Z,51.00
2018-03-25T20:36:53.051Z,51.40
2018-03-25T20:39:21.361Z,52.10
2018-03-25T20:41:48.930Z,52.10
2018-03-25T20:44:18.483Z,52.30
2018-03-25T20:46:47.892Z,52.50
2018-03-25T20:49:16.243Z,52.80
2018-03-25T20:51:44.187Z,52.70
2018-03-25T20:54:11.837Z,52.90
2018-03-25T20:56:39.397Z,53.10
2018-03-25T20:59:07.089Z,53.30
2018-03-25T21:01:34.739Z,53.40
2018-03-25T21:04:03.247Z,53.60
2018-03-25T21:06:30.830Z,53.90
2018-03-25T21:08:58.526Z,54.30
2018-03-25T21:11:26.095Z,54.60
2018-03-25T21:13:53.687Z,55.50
2018-03-25T21:16:22.090Z,55.80
2018-03-25T21:18:49.636Z,55.30
2018-03-25T21:21:18.020Z,55.50
2018-03-25T21:23:45.576Z,55.50
2018-03-25T21:26:15.198Z,55.60
2018-03-25T21:28:42.762Z,55.90
2018-03-25T21:31:10.391Z,56.20
2018-03-25T21:33:37.964Z,56.30
2018-03-25T21:36:05.522Z,56.40
2018-03-25T21:38:33.089Z,56.70
2018-03-25T21:41:01.619Z,56.90
2018-03-25T21:43:29.210Z,57.20
2018-03-25T21:45:57.519Z,57.40
2018-03-25T21:48:25.146Z,57.40
2018-03-25T21:50:53.445Z,57.70
2018-03-25T21:53:21.049Z,57.70
2018-03-25T21:55:48.646Z,57.80
2018-03-25T21:58:16.220Z,58.00
2018-03-25T22:00:43.808Z,57.90
2018-03-25T22:03:11.372Z,58.00
2018-03-25T22:05:38.984Z,58.20
2018-03-25T22:08:06.572Z,58.00
2018-03-25T22:10:34.210Z,57.90
2018-03-25T22:13:02.810Z,57.90
2018-03-25T22:15:30.364Z,57.80
2018-03-25T22:18:01.896Z,57.60
2018-03-25T22:20:29.492Z,57.50
2018-03-25T22:22:57.999Z,57.20
2018-03-25T22:25:25.550Z,57.10
2018-03-25T22:27:53.116Z,57.00
2018-03-25T22:30:20.693Z,56.90
2018-03-25T22:32:49.143Z,56.90
2018-03-25T22:35:16.803Z,56.90
2018-03-25T22:37:44.406Z,56.90
2018-03-25T22:40:13.251Z,56.60
2018-03-25T22:42:40.835Z,56.70
2018-03-25T22:45:08.384Z,56.50
2018-03-25T22:47:36.069Z,56.50
2018-03-25T22:50:04.373Z,56.50
2018-03-25T22:52:31.925Z,56.50
2018-03-25T22:54:59.813Z,56.70
2018-03-25T22:57:27.363Z,57.00
2018-03-25T22:59:54.899Z,57.00
2018-03-25T23:02:22.463Z,57.30
2018-03-25T23:04:50.034Z,57.00
2018-03-25T23:07:17.619Z,56.90
2018-03-25T23:09:45.178Z,57.00
2018-03-25T23:12:12.858Z,57.60
2018-03-25T23:14:40.435Z,57.20
2018-03-25T23:17:08.795Z,57.30
2018-03-25T23:19:36.348Z,57.30
2018-03-25T23:22:03.946Z,57.00
2018-03-25T23:24:31.486Z,57.10
2018-03-25T23:27:00.760Z,57.10
2018-03-25T23:29:28.474Z,57.10
2018-03-25T23:31:56.024Z,56.90
2018-03-25T23:34:24.554Z,56.90
2018-03-25T23:36:52.850Z,56.90
2018-03-25T23:39:21.161Z,56.60
2018-03-25T23:41:49.701Z,56.40
2018-03-25T23:44:17.298Z,56.20
2018-03-25T23:46:44.835Z,57.10
2018-03-25T23:49:13.147Z,57.00
2018-03-25T23:51:40.790Z,56.90
2018-03-25T23:54:08.326Z,56.90
2018-03-25T23:56:36.629Z,57.10
2018-03-25T23:59:04.228Z,57.10
